sensor_id;sensor_type;location;lat;lon;timestamp;pressure;altitude;pressure_sealevel;temperature;humidity
49044;BME280;34860;48.066;14.124;2023-06-14T00:02:14;96157.84;;;16.48;43.22
49044;BME280;34860;48.066;14.124;2023-06-14T00:05:08;96162.88;;;16.44;43.23
49044;BME280;34860;48.066;14.124;2023-06-14T00:07:59;96165.91;;;16.41;43.17
49044;BME280;34860;48.066;14.124;2023-06-14T00:10:50;96160.50;;;16.37;43.03
49044;BME280;34860;48.066;14.124;2023-06-14T00:13:41;96155.88;;;16.34;43.26
49044;BME280;34860;48.066;14.124;2023-06-14T00:16:34;96155.28;;;16.30;43.41
49044;BME280;34860;48.066;14.124;2023-06-14T00:19:26;96157.03;;;16.27;43.36
49044;BME280;34860;48.066;14.124;2023-06-14T00:22:16;96165.16;;;16.25;43.48
49044;BME280;34860;48.066;14.124;2023-06-14T00:25:08;96156.19;;;16.21;43.51
49044;BME280;34860;48.066;14.124;2023-06-14T00:28:05;96155.88;;;16.19;43.32
49044;BME280;34860;48.066;14.124;2023-06-14T00:30:55;96151.25;;;16.16;43.33
49044;BME280;34860;48.066;14.124;2023-06-14T00:33:49;96153.00;;;16.13;43.29
49044;BME280;34860;48.066;14.124;2023-06-14T00:36:41;96150.44;;;16.10;43.54
49044;BME280;34860;48.066;14.124;2023-06-14T00:39:33;96152.16;;;16.07;43.53
49044;BME280;34860;48.066;14.124;2023-06-14T00:42:23;96150.31;;;16.04;43.42
49044;BME280;34860;48.066;14.124;2023-06-14T00:45:24;96142.41;;;16.03;43.69
49044;BME280;34860;48.066;14.124;2023-06-14T00:48:16;96143.38;;;16.00;43.73
49044;BME280;34860;48.066;14.124;2023-06-14T00:51:07;96142.31;;;15.97;43.27
49044;BME280;34860;48.066;14.124;2023-06-14T00:53:59;96148.38;;;15.95;43.55
49044;BME280;34860;48.066;14.124;2023-06-14T00:56:47;96148.13;;;15.93;43.42
49044;BME280;34860;48.066;14.124;2023-06-14T00:59:43;96134.59;;;15.92;43.66
49044;BME280;34860;48.066;14.124;2023-06-14T01:02:33;96134.31;;;15.90;43.66
49044;BME280;34860;48.066;14.124;2023-06-14T01:05:23;96132.00;;;15.88;43.68
49044;BME280;34860;48.066;14.124;2023-06-14T01:08:25;96125.31;;;15.86;43.69
49044;BME280;34860;48.066;14.124;2023-06-14T01:11:20;96129.88;;;15.83;43.86
49044;BME280;34860;48.066;14.124;2023-06-14T01:14:14;96133.66;;;15.80;43.73
49044;BME280;34860;48.066;14.124;2023-06-14T01:17:07;96126.97;;;15.77;43.88
49044;BME280;34860;48.066;14.124;2023-06-14T01:20:04;96139.91;;;15.75;43.69
49044;BME280;34860;48.066;14.124;2023-06-14T01:23:06;96133.72;;;15.71;43.82
49044;BME280;34860;48.066;14.124;2023-06-14T01:25:55;96137.78;;;15.70;43.92
49044;BME280;34860;48.066;14.124;2023-06-14T01:28:46;96134.41;;;15.66;43.82
49044;BME280;34860;48.066;14.124;2023-06-14T01:31:42;96134.13;;;15.64;43.93
49044;BME280;34860;48.066;14.124;2023-06-14T01:34:31;96142.22;;;15.61;44.02
49044;BME280;34860;48.066;14.124;2023-06-14T01:37:23;96146.00;;;15.58;43.87
49044;BME280;34860;48.066;14.124;2023-06-14T01:40:14;96148.50;;;15.56;43.92
49044;BME280;34860;48.066;14.124;2023-06-14T01:43:07;96153.84;;;15.54;44.02
49044;BME280;34860;48.066;14.124;2023-06-14T01:45:57;96149.19;;;15.51;43.79
49044;BME280;34860;48.066;14.124;2023-06-14T01:48:46;96148.13;;;15.49;43.96
49044;BME280;34860;48.066;14.124;2023-06-14T01:51:35;96149.09;;;15.46;43.69
49044;BME280;34860;48.066;14.124;2023-06-14T01:54:24;96147.44;;;15.39;44.13
49044;BME280;34860;48.066;14.124;2023-06-14T01:57:16;96144.53;;;15.33;44.09
49044;BME280;34860;48.066;14.124;2023-06-14T02:00:08;96148.00;;;15.28;43.86
49044;BME280;34860;48.066;14.124;2023-06-14T02:03:07;96152.25;;;15.23;44.06
49044;BME280;34860;48.066;14.124;2023-06-14T02:05:56;96153.41;;;15.17;44.17
49044;BME280;34860;48.066;14.124;2023-06-14T02:08:50;96154.84;;;15.12;44.40
49044;BME280;34860;48.066;14.124;2023-06-14T02:11:39;96155.03;;;15.08;44.20
49044;BME280;34860;48.066;14.124;2023-06-14T02:14:29;96156.75;;;15.06;44.31
49044;BME280;34860;48.066;14.124;2023-06-14T02:17:21;96158.50;;;15.03;44.34
49044;BME280;34860;48.066;14.124;2023-06-14T02:20:14;96154.34;;;14.99;44.39
49044;BME280;34860;48.066;14.124;2023-06-14T02:23:11;96164.94;;;14.95;44.23
49044;BME280;34860;48.066;14.124;2023-06-14T02:26:00;96163.91;;;14.92;44.33
49044;BME280;34860;48.066;14.124;2023-06-14T02:28:56;96162.53;;;14.87;44.40
49044;BME280;34860;48.066;14.124;2023-06-14T02:31:50;96153.53;;;14.83;44.34
49044;BME280;34860;48.066;14.124;2023-06-14T02:34:40;96163.34;;;14.79;44.39
49044;BME280;34860;48.066;14.124;2023-06-14T02:37:30;96161.69;;;14.72;44.44
49044;BME280;34860;48.066;14.124;2023-06-14T02:40:23;96159.56;;;14.67;44.44
49044;BME280;34860;48.066;14.124;2023-06-14T02:43:12;96157.44;;;14.62;44.51
49044;BME280;34860;48.066;14.124;2023-06-14T02:46:06;96166.31;;;14.60;44.68
49044;BME280;34860;48.066;14.124;2023-06-14T02:48:57;96162.09;;;14.56;44.61
49044;BME280;34860;48.066;14.124;2023-06-14T02:51:46;96165.38;;;14.54;44.75
49044;BME280;34860;48.066;14.124;2023-06-14T02:54:38;96171.44;;;14.52;44.71
49044;BME280;34860;48.066;14.124;2023-06-14T02:57:29;96164.47;;;14.48;44.60
49044;BME280;34860;48.066;14.124;2023-06-14T03:00:22;96158.59;;;14.46;44.73
49044;BME280;34860;48.066;14.124;2023-06-14T03:03:16;96173.06;;;14.44;44.68
49044;BME280;34860;48.066;14.124;2023-06-14T03:06:13;96177.09;;;14.43;44.70
49044;BME280;34860;48.066;14.124;2023-06-14T03:09:10;96172.72;;;14.42;44.54
49044;BME280;34860;48.066;14.124;2023-06-14T03:12:03;96166.38;;;14.42;44.40
49044;BME280;34860;48.066;14.124;2023-06-14T03:14:55;96171.97;;;14.42;44.56
49044;BME280;34860;48.066;14.124;2023-06-14T03:17:52;96176.78;;;14.41;44.63
49044;BME280;34860;48.066;14.124;2023-06-14T03:20:41;96176.78;;;14.41;44.67
49044;BME280;34860;48.066;14.124;2023-06-14T03:23:39;96178.31;;;14.42;44.77
49044;BME280;34860;48.066;14.124;2023-06-14T03:26:29;96179.59;;;14.41;44.73
49044;BME280;34860;48.066;14.124;2023-06-14T03:29:19;96181.13;;;14.42;44.77
49044;BME280;34860;48.066;14.124;2023-06-14T03:32:12;96187.03;;;14.44;44.63
49044;BME280;34860;48.066;14.124;2023-06-14T03:35:03;96182.69;;;14.43;44.69
49044;BME280;34860;48.066;14.124;2023-06-14T03:37:52;96191.81;;;14.44;44.69
49044;BME280;34860;48.066;14.124;2023-06-14T03:40:46;96190.13;;;14.46;44.76
49044;BME280;34860;48.066;14.124;2023-06-14T03:43:41;96187.31;;;14.46;44.68
49044;BME280;34860;48.066;14.124;2023-06-14T03:46:33;96188.88;;;14.47;44.52
49044;BME280;34860;48.066;14.124;2023-06-14T03:49:27;96190.41;;;14.48;44.71
49044;BME280;34860;48.066;14.124;2023-06-14T03:52:16;96187.13;;;14.50;44.60
49044;BME280;34860;48.066;14.124;2023-06-14T03:55:10;96191.19;;;14.49;44.76
49044;BME280;34860;48.066;14.124;2023-06-14T03:58:05;96198.78;;;14.48;44.91
49044;BME280;34860;48.066;14.124;2023-06-14T04:00:56;96200.81;;;14.48;44.75
49044;BME280;34860;48.066;14.124;2023-06-14T04:03:50;96197.25;;;14.47;44.89
49044;BME280;34860;48.066;14.124;2023-06-14T04:06:44;96203.63;;;14.48;45.02
49044;BME280;34860;48.066;14.124;2023-06-14T04:09:38;96202.06;;;14.47;44.88
49044;BME280;34860;48.066;14.124;2023-06-14T04:12:27;96213.25;;;14.47;45.11
49044;BME280;34860;48.066;14.124;2023-06-14T04:15:20;96226.47;;;14.46;45.05
49044;BME280;34860;48.066;14.124;2023-06-14T04:18:12;96223.19;;;14.48;45.06
49044;BME280;34860;48.066;14.124;2023-06-14T04:21:03;96222.44;;;14.47;45.11
49044;BME280;34860;48.066;14.124;2023-06-14T04:23:58;96226.00;;;14.48;45.13
49044;BME280;34860;48.066;14.124;2023-06-14T04:26:50;96220.09;;;14.46;45.20
49044;BME280;34860;48.066;14.124;2023-06-14T04:29:42;96229.44;;;14.43;45.22
49044;BME280;34860;48.066;14.124;2023-06-14T04:32:34;96227.59;;;14.40;45.50
49044;BME280;34860;48.066;14.124;2023-06-14T04:35:32;96229.00;;;14.35;45.55
49044;BME280;34860;48.066;14.124;2023-06-14T04:38:25;96236.78;;;14.31;45.57
49044;BME280;34860;48.066;14.124;2023-06-14T04:41:17;96239.28;;;14.29;45.66
49044;BME280;34860;48.066;14.124;2023-06-14T04:44:10;96241.47;;;14.25;45.73
49044;BME280;34860;48.066;14.124;2023-06-14T04:47:04;96245.50;;;14.24;45.93
49044;BME280;34860;48.066;14.124;2023-06-14T04:49:59;96253.13;;;14.23;45.89
49044;BME280;34860;48.066;14.124;2023-06-14T04:52:53;96251.09;;;14.24;46.04
49044;BME280;34860;48.066;14.124;2023-06-14T04:55:42;96244.56;;;14.27;45.95
49044;BME280;34860;48.066;14.124;2023-06-14T04:58:32;96247.50;;;14.32;45.84
49044;BME280;34860;48.066;14.124;2023-06-14T05:01:22;96251.66;;;14.37;45.78
49044;BME280;34860;48.066;14.124;2023-06-14T05:04:18;96255.66;;;14.45;45.88
49044;BME280;34860;48.066;14.124;2023-06-14T05:07:11;96255.63;;;14.54;45.82
49044;BME280;34860;48.066;14.124;2023-06-14T05:10:08;96257.94;;;14.65;45.59
49044;BME280;34860;48.066;14.124;2023-06-14T05:13:00;96255.56;;;14.73;45.71
49044;BME280;34860;48.066;14.124;2023-06-14T05:15:49;96261.88;;;14.83;45.70
49044;BME280;34860;48.066;14.124;2023-06-14T05:18:38;96259.59;;;14.96;45.64
49044;BME280;34860;48.066;14.124;2023-06-14T05:21:28;96264.19;;;15.08;45.77
49044;BME280;34860;48.066;14.124;2023-06-14T05:24:19;96261.13;;;15.21;45.64
49044;BME280;34860;48.066;14.124;2023-06-14T05:27:09;96274.41;;;15.36;45.55
49044;BME280;34860;48.066;14.124;2023-06-14T05:29:59;96263.72;;;15.49;45.55
49044;BME280;34860;48.066;14.124;2023-06-14T05:32:51;96266.25;;;15.62;45.58
49044;BME280;34860;48.066;14.124;2023-06-14T05:35:39;96277.50;;;15.77;45.44
49044;BME280;34860;48.066;14.124;2023-06-14T05:38:29;96273.34;;;15.87;45.43
49044;BME280;34860;48.066;14.124;2023-06-14T05:41:20;96273.84;;;16.01;45.50
49044;BME280;34860;48.066;14.124;2023-06-14T05:44:08;96279.16;;;16.13;45.45
49044;BME280;34860;48.066;14.124;2023-06-14T05:46:57;96283.19;;;16.27;45.41
49044;BME280;34860;48.066;14.124;2023-06-14T05:49:47;96284.16;;;16.39;45.43
49044;BME280;34860;48.066;14.124;2023-06-14T05:52:35;96287.16;;;16.50;45.43
49044;BME280;34860;48.066;14.124;2023-06-14T05:55:32;96291.84;;;16.59;45.48
49044;BME280;34860;48.066;14.124;2023-06-14T05:58:22;96281.00;;;16.67;45.58
49044;BME280;34860;48.066;14.124;2023-06-14T06:01:16;96281.88;;;16.73;45.47
49044;BME280;34860;48.066;14.124;2023-06-14T06:04:05;96283.97;;;16.78;45.72
49044;BME280;34860;48.066;14.124;2023-06-14T06:06:54;96292.22;;;16.82;45.78
49044;BME280;34860;48.066;14.124;2023-06-14T06:09:43;96294.06;;;16.85;45.72
49044;BME280;34860;48.066;14.124;2023-06-14T06:12:33;96298.69;;;16.88;45.91
49044;BME280;34860;48.066;14.124;2023-06-14T06:15:24;96289.00;;;16.89;46.12
49044;BME280;34860;48.066;14.124;2023-06-14T06:18:15;96296.94;;;16.91;46.06
49044;BME280;34860;48.066;14.124;2023-06-14T06:21:06;96299.28;;;16.92;46.19
49044;BME280;34860;48.066;14.124;2023-06-14T06:23:57;96303.16;;;16.95;46.07
49044;BME280;34860;48.066;14.124;2023-06-14T06:26:46;96297.53;;;16.95;46.20
49044;BME280;34860;48.066;14.124;2023-06-14T06:29:35;96304.19;;;16.97;46.13
49044;BME280;34860;48.066;14.124;2023-06-14T06:32:25;96294.03;;;17.00;46.22
49044;BME280;34860;48.066;14.124;2023-06-14T06:35:15;96303.50;;;17.02;46.42
49044;BME280;34860;48.066;14.124;2023-06-14T06:38:06;96304.53;;;17.05;46.11
49044;BME280;34860;48.066;14.124;2023-06-14T06:40:56;96312.75;;;17.09;46.26
49044;BME280;34860;48.066;14.124;2023-06-14T06:43:46;96318.94;;;17.13;46.40
49044;BME280;34860;48.066;14.124;2023-06-14T06:46:38;96316.72;;;17.17;46.06
49044;BME280;34860;48.066;14.124;2023-06-14T06:49:31;96320.56;;;17.19;46.24
49044;BME280;34860;48.066;14.124;2023-06-14T06:52:19;96322.66;;;17.24;46.25
49044;BME280;34860;48.066;14.124;2023-06-14T06:55:08;96326.81;;;17.29;46.25
49044;BME280;34860;48.066;14.124;2023-06-14T06:57:58;96330.19;;;17.33;46.21
49044;BME280;34860;48.066;14.124;2023-06-14T07:00:48;96327.94;;;17.37;46.27
49044;BME280;34860;48.066;14.124;2023-06-14T07:03:47;96334.13;;;17.41;46.21
49044;BME280;34860;48.066;14.124;2023-06-14T07:06:46;96328.59;;;17.47;46.34
49044;BME280;34860;48.066;14.124;2023-06-14T07:09:34;96330.41;;;17.50;46.13
49044;BME280;34860;48.066;14.124;2023-06-14T07:12:23;96322.06;;;17.56;46.25
49044;BME280;34860;48.066;14.124;2023-06-14T07:15:13;96336.19;;;17.61;46.21
49044;BME280;34860;48.066;14.124;2023-06-14T07:18:05;96337.28;;;17.70;46.03
49044;BME280;34860;48.066;14.124;2023-06-14T07:20:55;96332.72;;;17.72;46.11
49044;BME280;34860;48.066;14.124;2023-06-14T07:23:46;96336.34;;;17.78;46.09
49044;BME280;34860;48.066;14.124;2023-06-14T07:26:38;96341.25;;;17.84;46.18
49044;BME280;34860;48.066;14.124;2023-06-14T07:29:28;96332.94;;;17.89;45.96
49044;BME280;34860;48.066;14.124;2023-06-14T07:32:20;96340.16;;;17.96;46.21
49044;BME280;34860;48.066;14.124;2023-06-14T07:35:10;96333.06;;;18.01;46.21
49044;BME280;34860;48.066;14.124;2023-06-14T07:38:05;96338.75;;;18.06;46.06
49044;BME280;34860;48.066;14.124;2023-06-14T07:40:56;96345.69;;;18.11;46.02
49044;BME280;34860;48.066;14.124;2023-06-14T07:43:45;96339.34;;;18.16;45.88
49044;BME280;34860;48.066;14.124;2023-06-14T07:46:37;96328.94;;;18.22;45.97
49044;BME280;34860;48.066;14.124;2023-06-14T07:49:28;96347.13;;;18.27;46.34
49044;BME280;34860;48.066;14.124;2023-06-14T07:52:18;96339.50;;;18.33;46.09
49044;BME280;34860;48.066;14.124;2023-06-14T07:55:12;96341.09;;;18.40;45.97
49044;BME280;34860;48.066;14.124;2023-06-14T07:58:07;96344.72;;;18.46;46.13
49044;BME280;34860;48.066;14.124;2023-06-14T08:00:57;96348.84;;;18.50;45.93
49044;BME280;34860;48.066;14.124;2023-06-14T08:03:47;96352.50;;;18.57;45.93
49044;BME280;34860;48.066;14.124;2023-06-14T08:06:38;96356.13;;;18.63;45.81
49044;BME280;34860;48.066;14.124;2023-06-14T08:09:33;96355.69;;;18.70;45.86
49044;BME280;34860;48.066;14.124;2023-06-14T08:12:22;96365.47;;;18.80;45.86
49044;BME280;34860;48.066;14.124;2023-06-14T08:15:13;96359.16;;;18.85;45.80
49044;BME280;34860;48.066;14.124;2023-06-14T08:18:06;96363.03;;;18.94;45.69
49044;BME280;34860;48.066;14.124;2023-06-14T08:20:59;96365.41;;;19.01;45.68
49044;BME280;34860;48.066;14.124;2023-06-14T08:23:47;96366.50;;;19.09;45.65
49044;BME280;34860;48.066;14.124;2023-06-14T08:26:38;96359.91;;;19.18;45.68
49044;BME280;34860;48.066;14.124;2023-06-14T08:29:30;96367.88;;;19.25;45.67
49044;BME280;34860;48.066;14.124;2023-06-14T08:32:20;96358.16;;;19.32;45.61
49044;BME280;34860;48.066;14.124;2023-06-14T08:35:09;96358.97;;;19.38;45.56
49044;BME280;34860;48.066;14.124;2023-06-14T08:38:06;96366.19;;;19.45;45.61
49044;BME280;34860;48.066;14.124;2023-06-14T08:40:57;96359.81;;;19.50;45.68
49044;BME280;34860;48.066;14.124;2023-06-14T08:43:50;96370.34;;;19.55;45.54
49044;BME280;34860;48.066;14.124;2023-06-14T08:46:39;96368.84;;;19.59;45.61
49044;BME280;34860;48.066;14.124;2023-06-14T08:49:32;96361.69;;;19.64;45.60
49044;BME280;34860;48.066;14.124;2023-06-14T08:52:27;96365.00;;;19.68;45.44
49044;BME280;34860;48.066;14.124;2023-06-14T08:55:24;96360.16;;;19.74;45.59
49044;BME280;34860;48.066;14.124;2023-06-14T08:58:16;96365.09;;;19.80;45.63
49044;BME280;34860;48.066;14.124;2023-06-14T09:01:11;96370.75;;;19.85;45.54
49044;BME280;34860;48.066;14.124;2023-06-14T09:04:03;96372.31;;;19.92;45.43
49044;BME280;34860;48.066;14.124;2023-06-14T09:06:55;96368.22;;;19.99;45.57
49044;BME280;34860;48.066;14.124;2023-06-14T09:09:48;96364.94;;;20.06;45.48
49044;BME280;34860;48.066;14.124;2023-06-14T09:12:48;96370.56;;;20.11;45.37
49044;BME280;34860;48.066;14.124;2023-06-14T09:15:45;96356.00;;;20.19;45.40
49044;BME280;34860;48.066;14.124;2023-06-14T09:18:35;96366.50;;;20.24;45.31
49044;BME280;34860;48.066;14.124;2023-06-14T09:21:24;96383.44;;;20.29;45.44
49044;BME280;34860;48.066;14.124;2023-06-14T09:24:19;96372.41;;;20.37;45.61
49044;BME280;34860;48.066;14.124;2023-06-14T09:27:15;96373.22;;;20.43;45.23
49044;BME280;34860;48.066;14.124;2023-06-14T09:30:06;96369.63;;;20.48;45.34
49044;BME280;34860;48.066;14.124;2023-06-14T09:33:00;96384.00;;;20.56;45.16
49044;BME280;34860;48.066;14.124;2023-06-14T09:35:54;96380.41;;;20.61;45.17
49044;BME280;34860;48.066;14.124;2023-06-14T09:38:52;96373.25;;;20.66;45.36
49044;BME280;34860;48.066;14.124;2023-06-14T09:41:44;96373.25;;;20.72;45.09
49044;BME280;34860;48.066;14.124;2023-06-14T09:44:35;96367.09;;;20.79;45.13
49044;BME280;34860;48.066;14.124;2023-06-14T09:47:29;96371.72;;;20.82;45.07
49044;BME280;34860;48.066;14.124;2023-06-14T09:50:20;96375.06;;;20.86;45.02
49044;BME280;34860;48.066;14.124;2023-06-14T09:53:11;96372.22;;;20.92;45.11
49044;BME280;34860;48.066;14.124;2023-06-14T09:56:05;96380.19;;;20.99;45.15
49044;BME280;34860;48.066;14.124;2023-06-14T09:58:57;96370.19;;;21.03;45.02
49044;BME280;34860;48.066;14.124;2023-06-14T10:01:58;96370.16;;;21.09;45.07
49044;BME280;34860;48.066;14.124;2023-06-14T10:04:57;96372.97;;;21.15;45.03
49044;BME280;34860;48.066;14.124;2023-06-14T10:07:59;96370.16;;;21.20;44.97
49044;BME280;34860;48.066;14.124;2023-06-14T10:10:53;96360.91;;;21.26;44.95
49044;BME280;34860;48.066;14.124;2023-06-14T10:13:43;96369.34;;;21.31;44.87
49044;BME280;34860;48.066;14.124;2023-06-14T10:16:37;96370.34;;;21.39;44.85
49044;BME280;34860;48.066;14.124;2023-06-14T10:19:42;96370.34;;;21.45;45.00
49044;BME280;34860;48.066;14.124;2023-06-14T10:22:39;96374.50;;;21.50;44.84
49044;BME280;34860;48.066;14.124;2023-06-14T10:25:35;96368.81;;;21.55;44.95
49044;BME280;34860;48.066;14.124;2023-06-14T10:28:28;96377.53;;;21.63;44.83
49044;BME280;34860;48.066;14.124;2023-06-14T10:31:17;96370.56;;;21.70;44.65
49044;BME280;34860;48.066;14.124;2023-06-14T10:34:21;96366.69;;;21.79;44.75
49044;BME280;34860;48.066;14.124;2023-06-14T10:37:14;96371.25;;;21.87;44.39
49044;BME280;34860;48.066;14.124;2023-06-14T10:40:08;96364.81;;;21.92;44.57
49044;BME280;34860;48.066;14.124;2023-06-14T10:42:58;96362.47;;;21.97;44.50
49044;BME280;34860;48.066;14.124;2023-06-14T10:46:16;96369.13;;;22.05;44.50
49044;BME280;34860;48.066;14.124;2023-06-14T10:49:08;96359.84;;;22.10;44.57
49044;BME280;34860;48.066;14.124;2023-06-14T10:52:02;96359.28;;;22.17;44.44
49044;BME280;34860;48.066;14.124;2023-06-14T10:54:59;96348.19;;;22.25;44.42
49044;BME280;34860;48.066;14.124;2023-06-14T10:57:52;96354.09;;;22.33;44.49
49044;BME280;34860;48.066;14.124;2023-06-14T11:00:47;96351.47;;;22.40;44.29
49044;BME280;34860;48.066;14.124;2023-06-14T11:03:43;96349.59;;;22.48;44.29
49044;BME280;34860;48.066;14.124;2023-06-14T11:06:47;96349.03;;;22.56;44.26
49044;BME280;34860;48.066;14.124;2023-06-14T11:10:01;96346.38;;;22.63;44.22
49044;BME280;34860;48.066;14.124;2023-06-14T11:12:56;96351.97;;;22.75;44.20
49044;BME280;34860;48.066;14.124;2023-06-14T11:15:47;96346.19;;;22.86;44.21
49044;BME280;34860;48.066;14.124;2023-06-14T11:18:44;96344.31;;;22.94;44.09
49044;BME280;34860;48.066;14.124;2023-06-14T11:21:39;96343.72;;;23.07;44.03
49044;BME280;34860;48.066;14.124;2023-06-14T11:24:28;96343.91;;;23.15;44.04
49044;BME280;34860;48.066;14.124;2023-06-14T11:27:27;96342.50;;;23.27;44.19
49044;BME280;34860;48.066;14.124;2023-06-14T11:30:25;96340.31;;;23.39;44.07
49044;BME280;34860;48.066;14.124;2023-06-14T11:33:17;96336.31;;;23.53;44.00
49044;BME280;34860;48.066;14.124;2023-06-14T11:36:12;96330.94;;;23.69;43.90
49044;BME280;34860;48.066;14.124;2023-06-14T11:39:02;96338.28;;;23.83;43.89
49044;BME280;34860;48.066;14.124;2023-06-14T11:41:56;96325.97;;;24.00;43.67
49044;BME280;34860;48.066;14.124;2023-06-14T11:44:50;96334.22;;;24.17;43.78
49044;BME280;34860;48.066;14.124;2023-06-14T11:47:46;96334.97;;;24.36;43.48
49044;BME280;34860;48.066;14.124;2023-06-14T11:50:37;96324.13;;;24.54;43.31
49044;BME280;34860;48.066;14.124;2023-06-14T11:53:31;96321.25;;;24.73;42.98
49044;BME280;34860;48.066;14.124;2023-06-14T11:56:23;96326.88;;;24.92;43.20
49044;BME280;34860;48.066;14.124;2023-06-14T11:59:13;96325.28;;;25.10;42.90
49044;BME280;34860;48.066;14.124;2023-06-14T12:02:08;96327.81;;;25.27;42.97
49044;BME280;34860;48.066;14.124;2023-06-14T12:05:04;96317.69;;;25.45;42.71
49044;BME280;34860;48.066;14.124;2023-06-14T12:07:58;96325.34;;;25.63;42.94
49044;BME280;34860;48.066;14.124;2023-06-14T12:10:51;96320.53;;;25.85;42.73
49044;BME280;34860;48.066;14.124;2023-06-14T12:13:42;96317.53;;;26.04;42.68
49044;BME280;34860;48.066;14.124;2023-06-14T12:16:39;96327.47;;;26.24;42.53
49044;BME280;34860;48.066;14.124;2023-06-14T12:19:41;96312.06;;;26.40;42.58
49044;BME280;34860;48.066;14.124;2023-06-14T12:22:30;96316.06;;;26.58;42.08
49044;BME280;34860;48.066;14.124;2023-06-14T12:25:29;96311.69;;;26.78;41.88
49044;BME280;34860;48.066;14.124;2023-06-14T12:28:19;96318.72;;;26.98;42.02
49044;BME280;34860;48.066;14.124;2023-06-14T12:31:11;96304.91;;;27.10;41.87
49044;BME280;34860;48.066;14.124;2023-06-14T12:34:07;96316.03;;;27.22;42.22
49044;BME280;34860;48.066;14.124;2023-06-14T12:36:58;96322.63;;;27.38;41.84
49044;BME280;34860;48.066;14.124;2023-06-14T12:39:47;96319.13;;;27.52;42.10
49044;BME280;34860;48.066;14.124;2023-06-14T12:42:45;96313.72;;;27.70;42.00
49044;BME280;34860;48.066;14.124;2023-06-14T12:45:34;96319.72;;;27.87;41.62
49044;BME280;34860;48.066;14.124;2023-06-14T12:48:24;96323.81;;;28.07;41.64
49044;BME280;34860;48.066;14.124;2023-06-14T12:51:17;96318.75;;;28.29;41.69
49044;BME280;34860;48.066;14.124;2023-06-14T12:54:11;96315.34;;;28.46;41.11
49044;BME280;34860;48.066;14.124;2023-06-14T12:57:04;96331.19;;;28.55;41.24
49044;BME280;34860;48.066;14.124;2023-06-14T12:59:59;96322.66;;;28.62;41.36
49044;BME280;34860;48.066;14.124;2023-06-14T13:02:48;96324.38;;;28.73;41.08
49044;BME280;34860;48.066;14.124;2023-06-14T13:05:37;96321.38;;;28.87;41.28
49044;BME280;34860;48.066;14.124;2023-06-14T13:08:29;96320.03;;;29.03;40.97
49044;BME280;34860;48.066;14.124;2023-06-14T13:11:20;96312.97;;;29.20;40.53
49044;BME280;34860;48.066;14.124;2023-06-14T13:14:11;96322.13;;;29.41;40.57
49044;BME280;34860;48.066;14.124;2023-06-14T13:17:08;96331.06;;;29.68;40.28
49044;BME280;34860;48.066;14.124;2023-06-14T13:19:58;96323.75;;;29.91;40.15
49044;BME280;34860;48.066;14.124;2023-06-14T13:22:53;96318.88;;;30.16;40.03
49044;BME280;34860;48.066;14.124;2023-06-14T13:25:42;96321.84;;;30.41;39.66
49044;BME280;34860;48.066;14.124;2023-06-14T13:28:33;96304.88;;;30.69;39.33
49044;BME280;34860;48.066;14.124;2023-06-14T13:31:23;96320.19;;;30.96;39.51
49044;BME280;34860;48.066;14.124;2023-06-14T13:34:13;96320.38;;;31.16;39.20
49044;BME280;34860;48.066;14.124;2023-06-14T13:37:01;96328.94;;;31.24;39.35
49044;BME280;34860;48.066;14.124;2023-06-14T13:39:53;96324.72;;;31.25;39.24
49044;BME280;34860;48.066;14.124;2023-06-14T13:42:43;96332.22;;;31.20;39.12
49044;BME280;34860;48.066;14.124;2023-06-14T13:45:39;96322.19;;;31.11;39.44
49044;BME280;34860;48.066;14.124;2023-06-14T13:48:34;96322.56;;;31.08;39.61
49044;BME280;34860;48.066;14.124;2023-06-14T13:51:27;96321.41;;;31.11;39.65
49044;BME280;34860;48.066;14.124;2023-06-14T13:54:20;96322.69;;;31.18;39.48
49044;BME280;34860;48.066;14.124;2023-06-14T13:57:08;96312.06;;;31.28;39.50
49044;BME280;34860;48.066;14.124;2023-06-14T14:00:03;96313.28;;;31.42;39.31
49044;BME280;34860;48.066;14.124;2023-06-14T14:03:03;96308.34;;;31.60;39.31
49044;BME280;34860;48.066;14.124;2023-06-14T14:05:55;96317.38;;;31.74;39.29
49044;BME280;34860;48.066;14.124;2023-06-14T14:08:47;96313.72;;;31.91;38.97
49044;BME280;34860;48.066;14.124;2023-06-14T14:11:42;96313.00;;;32.08;38.83
49044;BME280;34860;48.066;14.124;2023-06-14T14:14:33;96303.00;;;32.27;38.60
49044;BME280;34860;48.066;14.124;2023-06-14T14:17:27;96301.41;;;32.43;38.60
49044;BME280;34860;48.066;14.124;2023-06-14T14:20:20;96301.53;;;32.63;38.33
49044;BME280;34860;48.066;14.124;2023-06-14T14:23:12;96311.66;;;32.81;38.15
49044;BME280;34860;48.066;14.124;2023-06-14T14:26:01;96309.88;;;32.95;37.91
49044;BME280;34860;48.066;14.124;2023-06-14T14:28:54;96314.47;;;33.08;37.93
49044;BME280;34860;48.066;14.124;2023-06-14T14:31:43;96317.88;;;33.24;38.09
49044;BME280;34860;48.066;14.124;2023-06-14T14:34:34;96323.06;;;33.36;37.78
49044;BME280;34860;48.066;14.124;2023-06-14T14:37:34;96313.22;;;33.39;37.66
49044;BME280;34860;48.066;14.124;2023-06-14T14:40:22;96318.38;;;33.40;37.67
49044;BME280;34860;48.066;14.124;2023-06-14T14:43:13;96321.59;;;33.44;37.91
49044;BME280;34860;48.066;14.124;2023-06-14T14:46:05;96318.84;;;33.46;37.84
49044;BME280;34860;48.066;14.124;2023-06-14T14:48:55;96311.88;;;33.49;37.56
49044;BME280;34860;48.066;14.124;2023-06-14T14:51:47;96315.06;;;33.54;37.91
49044;BME280;34860;48.066;14.124;2023-06-14T14:54:48;96316.31;;;33.60;37.66
49044;BME280;34860;48.066;14.124;2023-06-14T14:57:36;96316.91;;;33.69;37.54
49044;BME280;34860;48.066;14.124;2023-06-14T15:00:34;96314.97;;;33.81;37.21
49044;BME280;34860;48.066;14.124;2023-06-14T15:03:24;96312.13;;;33.91;37.55